THI weather

Tichitt Airport
Tichitt, Tagant Region, Mauritania

Public forecast

Using degrees Celsius for public forecast. Weather courtesy of forecast.io.

Closest aviation weather report (METAR) to Tichitt Airport

Report is more than 6 hours old.

Closest report is NĂ©ma Airport, 167.1 nm (309.4 km) SE. Retrieved 2020/07/24 09:00 UTC (11 days ago):

GQNI 240900Z 22010KT CAVOK 33/21 Q1010

Closest aviation forecast (TAF) to Tichitt Airport

Forecast is more than 12 hours old.

Closest forecast is Nouakchott International Airport, 367.3 nm (680.2 km) W. Retrieved 2016/06/26 18:52 UTC (4 years ago):

TAF GQNN 261700Z 2618/2800 28010KT 6000 NSC BECMG 2619/2621 BKN008 PROB40 TEMPO 2704/2708 4000 BR BECMG 2709/2711 FEW010